sensor_id;sensor_type;location;lat;lon;timestamp;pressure;altitude;pressure_sealevel;temperature;humidity
6942;BME280;3510;43.200;27.920;2022-12-07T00:01:34;101226.41;;;19.81;44.90
6942;BME280;3510;43.200;27.920;2022-12-07T00:04:03;101230.72;;;19.82;44.92
6942;BME280;3510;43.200;27.920;2022-12-07T00:06:33;101230.16;;;19.56;45.40
6942;BME280;3510;43.200;27.920;2022-12-07T00:09:01;101237.81;;;19.56;45.26
6942;BME280;3510;43.200;27.920;2022-12-07T00:11:28;101230.16;;;19.56;44.93
6942;BME280;3510;43.200;27.920;2022-12-07T00:13:58;101233.75;;;18.70;46.88
6942;BME280;3510;43.200;27.920;2022-12-07T00:16:26;101233.63;;;17.56;49.59
6942;BME280;3510;43.200;27.920;2022-12-07T00:18:55;101230.81;;;18.49;47.80
6942;BME280;3510;43.200;27.920;2022-12-07T00:21:24;101238.47;;;18.77;47.10
6942;BME280;3510;43.200;27.920;2022-12-07T00:23:54;101235.94;;;18.63;47.10
6942;BME280;3510;43.200;27.920;2022-12-07T00:26:23;101245.19;;;18.61;47.44
6942;BME280;3510;43.200;27.920;2022-12-07T00:28:52;101237.59;;;18.91;46.51
6942;BME280;3510;43.200;27.920;2022-12-07T00:31:22;101241.78;;;18.91;46.51
6942;BME280;3510;43.200;27.920;2022-12-07T00:33:49;101238.34;;;19.05;46.37
6942;BME280;3510;43.200;27.920;2022-12-07T00:36:18;101239.13;;;19.19;46.02
6942;BME280;3510;43.200;27.920;2022-12-07T00:38:46;101238.72;;;19.42;45.37
6942;BME280;3510;43.200;27.920;2022-12-07T00:41:16;101215.03;;;19.14;45.66
6942;BME280;3510;43.200;27.920;2022-12-07T00:43:44;101239.06;;;19.02;45.69
6942;BME280;3510;43.200;27.920;2022-12-07T00:46:13;101241.06;;;18.21;47.13
6942;BME280;3510;43.200;27.920;2022-12-07T00:48:40;101241.56;;;17.47;49.36
6942;BME280;3510;43.200;27.920;2022-12-07T00:51:08;101223.25;;;17.13;50.35
6942;BME280;3510;43.200;27.920;2022-12-07T00:53:37;101230.22;;;17.15;50.48
6942;BME280;3510;43.200;27.920;2022-12-07T00:56:05;101227.94;;;17.73;49.27
6942;BME280;3510;43.200;27.920;2022-12-07T00:58:34;101232.81;;;17.83;48.88
6942;BME280;3510;43.200;27.920;2022-12-07T01:01:02;101230.28;;;17.70;49.30
6942;BME280;3510;43.200;27.920;2022-12-07T01:03:30;101235.69;;;17.48;49.59
6942;BME280;3510;43.200;27.920;2022-12-07T01:05:57;101227.94;;;17.73;49.34
6942;BME280;3510;43.200;27.920;2022-12-07T01:08:26;101224.53;;;17.59;49.34
6942;BME280;3510;43.200;27.920;2022-12-07T01:10:59;101194.38;;;17.52;48.88
6942;BME280;3510;43.200;27.920;2022-12-07T01:13:26;101221.91;;;16.66;51.74
6942;BME280;3510;43.200;27.920;2022-12-07T01:15:57;101214.09;;;17.28;50.38
6942;BME280;3510;43.200;27.920;2022-12-07T01:18:25;101215.22;;;17.60;48.98
6942;BME280;3510;43.200;27.920;2022-12-07T01:21:00;101203.31;;;16.92;51.07
6942;BME280;3510;43.200;27.920;2022-12-07T01:23:28;101175.41;;;16.94;50.81
6942;BME280;3510;43.200;27.920;2022-12-07T01:25:56;101199.69;;;17.97;48.51
6942;BME280;3510;43.200;27.920;2022-12-07T01:28:23;101200.00;;;17.75;48.90
6942;BME280;3510;43.200;27.920;2022-12-07T01:30:59;101198.09;;;18.42;47.32
6942;BME280;3510;43.200;27.920;2022-12-07T01:33:28;101189.31;;;18.36;47.43
6942;BME280;3510;43.200;27.920;2022-12-07T01:36:00;101198.84;;;17.83;48.52
6942;BME280;3510;43.200;27.920;2022-12-07T01:38:32;101170.41;;;17.90;48.04
6942;BME280;3510;43.200;27.920;2022-12-07T01:41:01;101168.06;;;17.38;49.29
6942;BME280;3510;43.200;27.920;2022-12-07T01:43:30;101179.63;;;17.75;48.69
6942;BME280;3510;43.200;27.920;2022-12-07T01:45:59;101176.81;;;17.29;49.93
6942;BME280;3510;43.200;27.920;2022-12-07T01:48:28;101162.44;;;17.57;48.89
6942;BME280;3510;43.200;27.920;2022-12-07T01:51:00;101166.63;;;17.29;49.74
6942;BME280;3510;43.200;27.920;2022-12-07T01:53:30;101171.75;;;17.57;49.24
6942;BME280;3510;43.200;27.920;2022-12-07T01:55:58;101155.38;;;17.66;49.00
6942;BME280;3510;43.200;27.920;2022-12-07T01:58:26;101168.91;;;17.65;49.15
6942;BME280;3510;43.200;27.920;2022-12-07T02:00:53;101163.22;;;17.98;48.55
6942;BME280;3510;43.200;27.920;2022-12-07T02:03:27;101155.38;;;17.66;48.72
6942;BME280;3510;43.200;27.920;2022-12-07T02:05:57;101172.28;;;17.51;49.23
6942;BME280;3510;43.200;27.920;2022-12-07T02:08:26;101171.94;;;17.60;49.31
6942;BME280;3510;43.200;27.920;2022-12-07T02:10:53;101165.19;;;16.67;51.38
6942;BME280;3510;43.200;27.920;2022-12-07T02:13:22;101170.75;;;17.68;49.39
6942;BME280;3510;43.200;27.920;2022-12-07T02:16:04;101160.75;;;17.43;49.30
6942;BME280;3510;43.200;27.920;2022-12-07T02:18:49;101156.94;;;17.36;50.29
6942;BME280;3510;43.200;27.920;2022-12-07T02:21:26;101163.38;;;17.31;49.84
6942;BME280;3510;43.200;27.920;2022-12-07T02:27:19;101167.09;;;17.36;49.89
6942;BME280;3510;43.200;27.920;2022-12-07T02:29:58;101131.44;;;16.82;50.34
6942;BME280;3510;43.200;27.920;2022-12-07T02:32:35;101162.69;;;16.42;52.46
6942;BME280;3510;43.200;27.920;2022-12-07T02:35:07;101164.06;;;16.76;51.54
6942;BME280;3510;43.200;27.920;2022-12-07T02:37:42;101172.09;;;17.08;50.12
6942;BME280;3510;43.200;27.920;2022-12-07T02:40:14;101150.97;;;16.83;50.77
6942;BME280;3510;43.200;27.920;2022-12-07T02:42:49;101162.16;;;17.66;48.93
6942;BME280;3510;43.200;27.920;2022-12-07T02:45:22;101137.88;;;16.77;50.49
6942;BME280;3510;43.200;27.920;2022-12-07T02:47:53;101163.75;;;17.37;49.49
6942;BME280;3510;43.200;27.920;2022-12-07T02:50:24;101164.38;;;16.42;51.96
6942;BME280;3510;43.200;27.920;2022-12-07T02:52:51;101170.91;;;17.16;50.40
6942;BME280;3510;43.200;27.920;2022-12-07T02:55:30;101169.28;;;16.39;51.13
6942;BME280;3510;43.200;27.920;2022-12-07T02:58:19;101165.72;;;16.75;51.09
6942;BME280;3510;43.200;27.920;2022-12-07T03:01:00;101168.78;;;17.23;49.72
6942;BME280;3510;43.200;27.920;2022-12-07T03:03:32;101169.44;;;16.29;51.76
6942;BME280;3510;43.200;27.920;2022-12-07T03:06:11;101167.59;;;17.04;49.98
6942;BME280;3510;43.200;27.920;2022-12-07T03:08:46;101155.63;;;16.63;50.76
6942;BME280;3510;43.200;27.920;2022-12-07T03:11:19;101167.38;;;17.28;49.70
6942;BME280;3510;43.200;27.920;2022-12-07T03:13:54;101161.88;;;17.61;48.64
6942;BME280;3510;43.200;27.920;2022-12-07T03:16:27;101136.13;;;17.02;49.41
6942;BME280;3510;43.200;27.920;2022-12-07T03:18:58;101156.56;;;16.52;50.68
6942;BME280;3510;43.200;27.920;2022-12-07T03:21:32;101159.69;;;16.86;50.08
6942;BME280;3510;43.200;27.920;2022-12-07T03:24:03;101155.59;;;16.88;50.28
6942;BME280;3510;43.200;27.920;2022-12-07T03:26:35;101156.34;;;17.69;48.25
6942;BME280;3510;43.200;27.920;2022-12-07T03:29:08;101141.69;;;17.64;47.77
6942;BME280;3510;43.200;27.920;2022-12-07T03:31:41;101159.66;;;17.39;48.50
6942;BME280;3510;43.200;27.920;2022-12-07T03:34:11;101160.47;;;17.66;47.97
6942;BME280;3510;43.200;27.920;2022-12-07T03:36:44;101158.16;;;17.56;48.03
6942;BME280;3510;43.200;27.920;2022-12-07T03:39:19;101143.91;;;18.01;46.87
6942;BME280;3510;43.200;27.920;2022-12-07T03:41:49;101149.94;;;18.31;45.95
6942;BME280;3510;43.200;27.920;2022-12-07T03:44:17;101148.75;;;18.40;45.93
6942;BME280;3510;43.200;27.920;2022-12-07T03:46:51;101151.59;;;18.31;45.96
6942;BME280;3510;43.200;27.920;2022-12-07T03:49:26;101153.56;;;17.92;46.81
6942;BME280;3510;43.200;27.920;2022-12-07T03:51:57;101132.03;;;17.46;47.56
6942;BME280;3510;43.200;27.920;2022-12-07T03:54:31;101148.09;;;17.31;48.35
6942;BME280;3510;43.200;27.920;2022-12-07T03:57:01;101146.28;;;17.15;48.69
6942;BME280;3510;43.200;27.920;2022-12-07T03:59:29;101157.28;;;17.42;48.07
6942;BME280;3510;43.200;27.920;2022-12-07T04:02:03;101152.03;;;17.26;48.67
6942;BME280;3510;43.200;27.920;2022-12-07T04:04:30;101153.22;;;17.18;48.47
6942;BME280;3510;43.200;27.920;2022-12-07T04:06:58;101154.78;;;17.71;47.49
6942;BME280;3510;43.200;27.920;2022-12-07T04:09:25;101126.06;;;17.58;46.88
6942;BME280;3510;43.200;27.920;2022-12-07T04:11:53;101118.56;;;17.47;47.57
6942;BME280;3510;43.200;27.920;2022-12-07T04:14:20;101150.84;;;17.89;47.02
6942;BME280;3510;43.200;27.920;2022-12-07T04:16:48;101143.56;;;17.95;46.78
6942;BME280;3510;43.200;27.920;2022-12-07T04:19:19;101145.59;;;18.01;46.77
6942;BME280;3510;43.200;27.920;2022-12-07T04:21:47;101144.00;;;17.88;46.86
6942;BME280;3510;43.200;27.920;2022-12-07T04:24:15;101137.69;;;17.96;46.33
6942;BME280;3510;43.200;27.920;2022-12-07T04:26:43;101141.84;;;17.39;48.13
6942;BME280;3510;43.200;27.920;2022-12-07T04:29:11;101135.50;;;17.20;48.30
6942;BME280;3510;43.200;27.920;2022-12-07T04:31:38;101128.66;;;17.18;48.31
6942;BME280;3510;43.200;27.920;2022-12-07T04:34:05;101133.31;;;17.39;47.93
6942;BME280;3510;43.200;27.920;2022-12-07T04:36:34;101123.38;;;17.29;48.11
6942;BME280;3510;43.200;27.920;2022-12-07T04:39:02;101135.16;;;17.13;48.78
6942;BME280;3510;43.200;27.920;2022-12-07T04:41:29;101142.53;;;17.37;48.21
6942;BME280;3510;43.200;27.920;2022-12-07T04:43:58;101131.22;;;17.05;48.91
6942;BME280;3510;43.200;27.920;2022-12-07T04:46:27;101140.41;;;17.16;48.81
6942;BME280;3510;43.200;27.920;2022-12-07T04:48:55;101139.78;;;17.34;48.42
6942;BME280;3510;43.200;27.920;2022-12-07T04:51:24;101140.59;;;17.33;48.51
6942;BME280;3510;43.200;27.920;2022-12-07T04:53:53;101135.59;;;17.34;48.16
6942;BME280;3510;43.200;27.920;2022-12-07T04:56:21;101144.09;;;17.35;48.55
6942;BME280;3510;43.200;27.920;2022-12-07T04:58:49;101145.97;;;17.37;48.61
6942;BME280;3510;43.200;27.920;2022-12-07T05:01:16;101141.66;;;17.23;48.85
6942;BME280;3510;43.200;27.920;2022-12-07T05:03:44;101137.97;;;17.18;48.96
6942;BME280;3510;43.200;27.920;2022-12-07T05:06:11;101129.06;;;16.98;48.90
6942;BME280;3510;43.200;27.920;2022-12-07T05:08:39;101137.47;;;17.24;48.34
6942;BME280;3510;43.200;27.920;2022-12-07T05:11:08;101142.09;;;17.57;47.80
6942;BME280;3510;43.200;27.920;2022-12-07T05:13:36;101132.13;;;16.92;49.31
6942;BME280;3510;43.200;27.920;2022-12-07T05:16:03;101142.97;;;16.77;49.51
6942;BME280;3510;43.200;27.920;2022-12-07T05:18:30;101150.00;;;17.21;48.71
6942;BME280;3510;43.200;27.920;2022-12-07T05:20:57;101147.81;;;17.40;48.04
6942;BME280;3510;43.200;27.920;2022-12-07T05:23:24;101144.13;;;17.22;48.63
6942;BME280;3510;43.200;27.920;2022-12-07T05:25:51;101146.59;;;16.93;49.29
6942;BME280;3510;43.200;27.920;2022-12-07T05:28:19;101151.50;;;16.52;49.88
6942;BME280;3510;43.200;27.920;2022-12-07T05:30:46;101149.19;;;15.92;52.17
6942;BME280;3510;43.200;27.920;2022-12-07T05:33:13;101154.63;;;15.24;53.48
6942;BME280;3510;43.200;27.920;2022-12-07T05:35:40;101152.84;;;14.65;55.44
6942;BME280;3510;43.200;27.920;2022-12-07T05:38:07;101152.19;;;14.79;55.19
6942;BME280;3510;43.200;27.920;2022-12-07T05:40:34;101151.41;;;15.15;53.87
6942;BME280;3510;43.200;27.920;2022-12-07T05:43:03;101147.47;;;14.84;54.83
6942;BME280;3510;43.200;27.920;2022-12-07T05:45:31;101148.34;;;14.72;55.17
6942;BME280;3510;43.200;27.920;2022-12-07T05:47:58;101148.22;;;14.83;54.66
6942;BME280;3510;43.200;27.920;2022-12-07T05:50:25;101152.06;;;14.66;55.27
6942;BME280;3510;43.200;27.920;2022-12-07T05:52:53;101144.25;;;14.74;55.42
6942;BME280;3510;43.200;27.920;2022-12-07T05:55:20;101139.75;;;15.06;54.62
6942;BME280;3510;43.200;27.920;2022-12-07T05:57:47;101137.00;;;15.03;54.53
6942;BME280;3510;43.200;27.920;2022-12-07T06:00:28;101137.97;;;15.05;54.43
6942;BME280;3510;43.200;27.920;2022-12-07T06:02:56;101130.09;;;15.48;53.21
6942;BME280;3510;43.200;27.920;2022-12-07T06:05:24;101147.31;;;16.14;51.88
6942;BME280;3510;43.200;27.920;2022-12-07T06:07:51;101143.38;;;16.06;51.82
6942;BME280;3510;43.200;27.920;2022-12-07T06:10:18;101116.84;;;16.28;51.01
6942;BME280;3510;43.200;27.920;2022-12-07T06:12:45;101143.97;;;16.15;51.45
6942;BME280;3510;43.200;27.920;2022-12-07T06:15:12;101147.88;;;15.85;51.80
6942;BME280;3510;43.200;27.920;2022-12-07T06:17:39;101150.00;;;16.04;51.45
6942;BME280;3510;43.200;27.920;2022-12-07T06:20:09;101143.53;;;15.96;51.59
6942;BME280;3510;43.200;27.920;2022-12-07T06:22:36;101124.41;;;15.64;52.13
6942;BME280;3510;43.200;27.920;2022-12-07T06:25:03;101154.03;;;15.89;51.78
6942;BME280;3510;43.200;27.920;2022-12-07T06:27:30;101150.69;;;16.40;50.94
6942;BME280;3510;43.200;27.920;2022-12-07T06:29:58;101084.06;;;16.44;49.60
6942;BME280;3510;43.200;27.920;2022-12-07T06:32:27;101158.03;;;17.13;49.25
6942;BME280;3510;43.200;27.920;2022-12-07T06:34:54;101115.16;;;16.66;49.35
6942;BME280;3510;43.200;27.920;2022-12-07T06:37:23;101143.84;;;16.77;49.38
6942;BME280;3510;43.200;27.920;2022-12-07T06:39:50;101156.44;;;17.29;48.66
6942;BME280;3510;43.200;27.920;2022-12-07T06:42:17;101151.44;;;17.44;48.65
6942;BME280;3510;43.200;27.920;2022-12-07T06:44:44;101124.53;;;17.34;48.22
6942;BME280;3510;43.200;27.920;2022-12-07T06:47:11;101156.84;;;17.22;48.55
6942;BME280;3510;43.200;27.920;2022-12-07T06:49:38;101120.31;;;17.48;47.83
6942;BME280;3510;43.200;27.920;2022-12-07T06:52:06;101151.06;;;17.79;47.48
6942;BME280;3510;43.200;27.920;2022-12-07T06:54:34;101156.66;;;17.73;47.75
6942;BME280;3510;43.200;27.920;2022-12-07T06:57:01;101160.88;;;17.73;47.50
6942;BME280;3510;43.200;27.920;2022-12-07T06:59:28;101163.19;;;17.83;47.04
6942;BME280;3510;43.200;27.920;2022-12-07T07:01:55;101129.09;;;17.53;47.63
6942;BME280;3510;43.200;27.920;2022-12-07T07:04:22;101141.28;;;18.00;46.85
6942;BME280;3510;43.200;27.920;2022-12-07T07:06:50;101153.06;;;18.12;46.33
6942;BME280;3510;43.200;27.920;2022-12-07T07:09:17;101159.69;;;18.38;45.88
6942;BME280;3510;43.200;27.920;2022-12-07T07:11:46;101153.19;;;17.86;46.66
6942;BME280;3510;43.200;27.920;2022-12-07T07:14:13;101146.50;;;18.31;45.66
6942;BME280;3510;43.200;27.920;2022-12-07T07:16:44;101157.91;;;18.80;45.15
6942;BME280;3510;43.200;27.920;2022-12-07T07:19:11;101155.97;;;18.76;45.07
6942;BME280;3510;43.200;27.920;2022-12-07T07:21:38;101143.97;;;18.60;45.44
6942;BME280;3510;43.200;27.920;2022-12-07T07:24:06;101154.53;;;18.67;45.52
6942;BME280;3510;43.200;27.920;2022-12-07T07:26:33;101165.72;;;19.29;44.49
6942;BME280;3510;43.200;27.920;2022-12-07T07:29:02;101167.84;;;19.22;44.34
6942;BME280;3510;43.200;27.920;2022-12-07T07:31:29;101168.81;;;19.24;44.64
6942;BME280;3510;43.200;27.920;2022-12-07T07:33:56;101170.03;;;19.94;43.29
6942;BME280;3510;43.200;27.920;2022-12-07T07:36:23;101156.13;;;20.54;42.29
6942;BME280;3510;43.200;27.920;2022-12-07T07:38:50;101161.97;;;20.19;42.27
6942;BME280;3510;43.200;27.920;2022-12-07T07:41:16;101161.81;;;20.67;41.62
6942;BME280;3510;43.200;27.920;2022-12-07T07:43:43;101165.78;;;20.96;41.37
6942;BME280;3510;43.200;27.920;2022-12-07T07:46:12;101151.44;;;20.64;41.76
6942;BME280;3510;43.200;27.920;2022-12-07T07:48:39;101161.84;;;20.00;42.80
6942;BME280;3510;43.200;27.920;2022-12-07T07:51:07;101170.53;;;20.03;42.68
6942;BME280;3510;43.200;27.920;2022-12-07T07:53:34;101169.56;;;19.38;44.05
6942;BME280;3510;43.200;27.920;2022-12-07T07:56:01;101162.94;;;19.72;42.89
6942;BME280;3510;43.200;27.920;2022-12-07T07:58:28;101131.44;;;19.57;42.65
6942;BME280;3510;43.200;27.920;2022-12-07T08:00:55;101163.53;;;20.50;41.46
6942;BME280;3510;43.200;27.920;2022-12-07T08:03:24;101174.13;;;20.92;40.40
6942;BME280;3510;43.200;27.920;2022-12-07T08:05:51;101176.03;;;20.96;40.35
6942;BME280;3510;43.200;27.920;2022-12-07T08:08:19;101167.59;;;20.63;41.00
6942;BME280;3510;43.200;27.920;2022-12-07T08:10:46;101171.88;;;20.29;41.49
6942;BME280;3510;43.200;27.920;2022-12-07T08:13:15;101181.94;;;19.77;41.97
6942;BME280;3510;43.200;27.920;2022-12-07T08:15:43;101168.75;;;19.39;43.20
6942;BME280;3510;43.200;27.920;2022-12-07T08:18:11;101172.31;;;19.88;42.12
6942;BME280;3510;43.200;27.920;2022-12-07T08:20:40;101170.22;;;19.97;42.26
6942;BME280;3510;43.200;27.920;2022-12-07T08:23:08;101176.34;;;20.01;42.22
6942;BME280;3510;43.200;27.920;2022-12-07T08:25:35;101175.41;;;19.82;42.67
6942;BME280;3510;43.200;27.920;2022-12-07T08:28:03;101170.69;;;19.90;42.79
6942;BME280;3510;43.200;27.920;2022-12-07T08:30:31;101165.34;;;19.38;43.63
6942;BME280;3510;43.200;27.920;2022-12-07T08:32:58;101150.16;;;18.79;44.95
6942;BME280;3510;43.200;27.920;2022-12-07T08:35:25;101159.50;;;19.09;44.89
6942;BME280;3510;43.200;27.920;2022-12-07T08:37:53;101160.31;;;19.40;44.28
6942;BME280;3510;43.200;27.920;2022-12-07T08:40:22;101166.78;;;19.80;44.00
6942;BME280;3510;43.200;27.920;2022-12-07T08:42:50;101171.16;;;19.83;43.73
6942;BME280;3510;43.200;27.920;2022-12-07T08:45:18;101159.84;;;20.11;43.40
6942;BME280;3510;43.200;27.920;2022-12-07T08:47:49;101155.78;;;19.81;43.67
6942;BME280;3510;43.200;27.920;2022-12-07T08:50:17;101133.88;;;19.23;44.96
6942;BME280;3510;43.200;27.920;2022-12-07T08:52:48;101135.50;;;19.21;45.16
6942;BME280;3510;43.200;27.920;2022-12-07T08:55:19;101126.41;;;19.42;44.20
6942;BME280;3510;43.200;27.920;2022-12-07T08:57:46;101145.72;;;19.37;43.84
6942;BME280;3510;43.200;27.920;2022-12-07T09:00:14;101142.00;;;20.12;42.99
6942;BME280;3510;43.200;27.920;2022-12-07T09:02:43;101110.50;;;19.63;43.04
6942;BME280;3510;43.200;27.920;2022-12-07T09:05:10;101143.78;;;20.82;40.93
6942;BME280;3510;43.200;27.920;2022-12-07T09:07:38;101143.81;;;21.55;39.68
6942;BME280;3510;43.200;27.920;2022-12-07T09:10:06;101141.38;;;21.96;38.82
6942;BME280;3510;43.200;27.920;2022-12-07T09:12:35;101139.94;;;21.64;38.90
6942;BME280;3510;43.200;27.920;2022-12-07T09:15:03;101131.66;;;20.95;40.84
6942;BME280;3510;43.200;27.920;2022-12-07T09:17:32;101130.03;;;20.45;41.97
6942;BME280;3510;43.200;27.920;2022-12-07T09:20:00;101131.75;;;20.98;41.04
6942;BME280;3510;43.200;27.920;2022-12-07T09:22:29;101121.44;;;20.43;42.08
6942;BME280;3510;43.200;27.920;2022-12-07T09:24:56;101117.38;;;19.96;43.52
6942;BME280;3510;43.200;27.920;2022-12-07T09:27:23;101116.31;;;19.93;43.38
6942;BME280;3510;43.200;27.920;2022-12-07T09:29:52;101090.13;;;20.31;42.64
6942;BME280;3510;43.200;27.920;2022-12-07T09:32:19;101118.41;;;21.04;40.86
6942;BME280;3510;43.200;27.920;2022-12-07T09:34:47;101116.94;;;21.46;39.97
6942;BME280;3510;43.200;27.920;2022-12-07T09:37:14;101096.66;;;20.76;41.35
6942;BME280;3510;43.200;27.920;2022-12-07T09:39:41;101103.38;;;21.12;40.35
6942;BME280;3510;43.200;27.920;2022-12-07T09:42:09;101061.84;;;20.62;40.91
6942;BME280;3510;43.200;27.920;2022-12-07T09:44:42;101102.38;;;20.90;40.92
6942;BME280;3510;43.200;27.920;2022-12-07T09:47:10;101099.69;;;21.24;40.35
6942;BME280;3510;43.200;27.920;2022-12-07T09:49:37;101100.56;;;20.01;42.60
6942;BME280;3510;43.200;27.920;2022-12-07T09:52:19;101084.06;;;21.56;40.08
6942;BME280;3510;43.200;27.920;2022-12-07T09:54:50;101092.69;;;21.58;39.73
6942;BME280;3510;43.200;27.920;2022-12-07T09:57:18;101095.41;;;21.06;40.89
6942;BME280;3510;43.200;27.920;2022-12-07T09:59:47;101053.25;;;21.73;39.41
6942;BME280;3510;43.200;27.920;2022-12-07T10:02:28;101078.22;;;22.18;39.03
6942;BME280;3510;43.200;27.920;2022-12-07T10:05:00;101081.47;;;22.14;39.15
6942;BME280;3510;43.200;27.920;2022-12-07T10:07:28;101089.06;;;21.53;39.52
6942;BME280;3510;43.200;27.920;2022-12-07T10:09:56;101072.75;;;21.70;39.67
6942;BME280;3510;43.200;27.920;2022-12-07T10:12:23;101082.38;;;21.75;40.01
6942;BME280;3510;43.200;27.920;2022-12-07T10:14:53;101068.88;;;21.99;39.65
6942;BME280;3510;43.200;27.920;2022-12-07T10:17:30;101074.16;;;22.23;39.40
6942;BME280;3510;43.200;27.920;2022-12-07T10:20:15;101058.78;;;22.04;39.44
6942;BME280;3510;43.200;27.920;2022-12-07T10:23:00;101057.78;;;20.31;41.70
6942;BME280;3510;43.200;27.920;2022-12-07T10:25:30;101057.16;;;21.46;40.58
6942;BME280;3510;43.200;27.920;2022-12-07T10:28:11;101051.91;;;21.62;39.69
6942;BME280;3510;43.200;27.920;2022-12-07T10:30:53;101048.63;;;22.26;39.04
6942;BME280;3510;43.200;27.920;2022-12-07T10:33:33;101063.44;;;21.53;40.60
6942;BME280;3510;43.200;27.920;2022-12-07T10:36:16;101050.16;;;22.02;39.83
6942;BME280;3510;43.200;27.920;2022-12-07T10:38:46;101021.78;;;21.97;39.86
6942;BME280;3510;43.200;27.920;2022-12-07T10:41:13;101033.34;;;23.17;37.59
6942;BME280;3510;43.200;27.920;2022-12-07T10:43:47;101047.75;;;23.84;36.71
6942;BME280;3510;43.200;27.920;2022-12-07T10:46:45;101047.22;;;23.69;36.80
6942;BME280;3510;43.200;27.920;2022-12-07T10:52:30;101026.13;;;22.85;37.09
6942;BME280;3510;43.200;27.920;2022-12-07T10:55:13;101037.53;;;21.46;40.03
6942;BME280;3510;43.200;27.920;2022-12-07T10:57:51;101039.59;;;21.34;40.01
6942;BME280;3510;43.200;27.920;2022-12-07T11:00:22;101025.44;;;21.62;39.24
6942;BME280;3510;43.200;27.920;2022-12-07T11:03:15;101029.28;;;22.78;37.17
6942;BME280;3510;43.200;27.920;2022-12-07T11:05:52;101027.22;;;21.64;38.78
6942;BME280;3510;43.200;27.920;2022-12-07T11:08:37;101002.56;;;21.66;39.16
6942;BME280;3510;43.200;27.920;2022-12-07T11:11:09;101032.72;;;21.93;39.36
6942;BME280;3510;43.200;27.920;2022-12-07T11:13:45;101019.50;;;21.84;39.34
6942;BME280;3510;43.200;27.920;2022-12-07T11:16:43;101013.56;;;21.25;40.33
6942;BME280;3510;43.200;27.920;2022-12-07T11:19:24;101015.53;;;21.13;40.97
6942;BME280;3510;43.200;27.920;2022-12-07T11:21:56;100973.84;;;21.54;40.32
6942;BME280;3510;43.200;27.920;2022-12-07T11:24:32;101007.56;;;22.47;39.69
6942;BME280;3510;43.200;27.920;2022-12-07T11:27:13;101005.41;;;23.25;38.09
6942;BME280;3510;43.200;27.920;2022-12-07T11:29:57;100999.81;;;24.12;36.13
6942;BME280;3510;43.200;27.920;2022-12-07T11:32:40;101001.63;;;23.65;36.66
6942;BME280;3510;43.200;27.920;2022-12-07T11:35:19;101005.44;;;24.00;36.29
6942;BME280;3510;43.200;27.920;2022-12-07T11:37:49;100994.94;;;22.97;38.37
6942;BME280;3510;43.200;27.920;2022-12-07T11:40:25;100994.13;;;22.32;39.62
6942;BME280;3510;43.200;27.920;2022-12-07T11:42:59;100984.91;;;21.53;41.11
6942;BME280;3510;43.200;27.920;2022-12-07T11:45:28;100980.88;;;21.79;40.84
6942;BME280;3510;43.200;27.920;2022-12-07T11:48:00;100981.13;;;22.06;40.04
6942;BME280;3510;43.200;27.920;2022-12-07T11:50:33;100988.06;;;21.67;41.47
6942;BME280;3510;43.200;27.920;2022-12-07T11:53:15;100982.25;;;21.71;42.03
6942;BME280;3510;43.200;27.920;2022-12-07T11:55:48;100984.63;;;21.87;41.45
6942;BME280;3510;43.200;27.920;2022-12-07T11:58:36;100971.34;;;21.96;40.96
6942;BME280;3510;43.200;27.920;2022-12-07T12:01:14;100973.50;;;22.08;40.38
6942;BME280;3510;43.200;27.920;2022-12-07T12:03:46;100973.34;;;22.46;39.44
6942;BME280;3510;43.200;27.920;2022-12-07T12:06:14;100977.88;;;22.31;39.13
6942;BME280;3510;43.200;27.920;2022-12-07T12:08:44;100929.63;;;21.18;41.40
6942;BME280;3510;43.200;27.920;2022-12-07T12:11:24;100944.69;;;21.31;42.14
6942;BME280;3510;43.200;27.920;2022-12-07T12:14:27;100974.47;;;21.10;42.90
6942;BME280;3510;43.200;27.920;2022-12-07T12:17:35;100934.94;;;21.03;42.77
6942;BME280;3510;43.200;27.920;2022-12-07T12:20:20;100962.13;;;20.62;42.63
6942;BME280;3510;43.200;27.920;2022-12-07T12:23:00;100971.56;;;20.83;42.92
6942;BME280;3510;43.200;27.920;2022-12-07T12:25:30;100960.06;;;20.55;42.54
6942;BME280;3510;43.200;27.920;2022-12-07T12:28:03;100950.63;;;21.30;41.21
6942;BME280;3510;43.200;27.920;2022-12-07T12:30:33;100958.69;;;21.59;41.32
6942;BME280;3510;43.200;27.920;2022-12-07T12:33:06;100962.78;;;20.58;43.29
6942;BME280;3510;43.200;27.920;2022-12-07T12:35:40;100960.13;;;20.39;42.95
6942;BME280;3510;43.200;27.920;2022-12-07T12:38:31;100958.25;;;22.11;40.53
6942;BME280;3510;43.200;27.920;2022-12-07T12:41:00;100954.03;;;21.31;41.01
6942;BME280;3510;43.200;27.920;2022-12-07T12:43:46;100930.22;;;22.14;39.19
6942;BME280;3510;43.200;27.920;2022-12-07T12:46:49;100953.06;;;22.75;38.63
6942;BME280;3510;43.200;27.920;2022-12-07T12:49:56;100958.25;;;23.23;37.25
6942;BME280;3510;43.200;27.920;2022-12-07T12:52:52;100959.47;;;23.58;37.06
6942;BME280;3510;43.200;27.920;2022-12-07T12:55:29;100954.72;;;23.45;37.86
6942;BME280;3510;43.200;27.920;2022-12-07T12:58:30;100958.56;;;23.58;36.95
6942;BME280;3510;43.200;27.920;2022-12-07T13:03:59;100953.50;;;22.87;38.52
6942;BME280;3510;43.200;27.920;2022-12-07T13:06:35;100950.19;;;22.02;39.35
6942;BME280;3510;43.200;27.920;2022-12-07T13:09:15;100952.25;;;22.54;38.65
6942;BME280;3510;43.200;27.920;2022-12-07T13:11:45;100953.41;;;22.62;38.56
6942;BME280;3510;43.200;27.920;2022-12-07T13:14:53;100951.44;;;22.32;39.04
6942;BME280;3510;43.200;27.920;2022-12-07T13:17:57;100948.47;;;22.66;37.48
6942;BME280;3510;43.200;27.920;2022-12-07T13:20:49;100942.69;;;23.18;36.85
6942;BME280;3510;43.200;27.920;2022-12-07T13:23:25;100941.56;;;23.12;37.01
6942;BME280;3510;43.200;27.920;2022-12-07T13:26:03;100937.53;;;23.18;36.47
6942;BME280;3510;43.200;27.920;2022-12-07T13:28:37;100945.38;;;22.30;37.75
6942;BME280;3510;43.200;27.920;2022-12-07T13:31:23;100940.09;;;22.94;37.23
6942;BME280;3510;43.200;27.920;2022-12-07T13:33:52;100934.38;;;22.79;37.98